createdAt,value
2019-01-18T00:02:30.105Z,2.62
2019-01-18T00:04:59.505Z,2.17
2019-01-18T00:07:28.895Z,3.00
2019-01-18T00:09:58.417Z,2.77
2019-01-18T00:12:27.828Z,3.23
2019-01-18T00:14:57.819Z,2.60
2019-01-18T00:17:28.936Z,2.37
2019-01-18T00:19:58.462Z,2.73
2019-01-18T00:22:27.853Z,3.83
2019-01-18T00:24:58.366Z,3.13
2019-01-18T00:27:28.011Z,2.60
2019-01-18T00:29:57.398Z,2.80
2019-01-18T00:32:26.832Z,2.97
2019-01-18T00:34:56.221Z,2.90
2019-01-18T00:37:26.368Z,2.70
2019-01-18T00:39:56.224Z,3.47
2019-01-18T00:42:27.985Z,5.53
2019-01-18T00:44:57.320Z,3.87
2019-01-18T00:48:07.326Z,2.90
2019-01-18T00:50:36.699Z,3.10
2019-01-18T00:53:06.177Z,3.30
2019-01-18T00:55:35.609Z,3.37
2019-01-18T00:58:05.151Z,5.67
2019-01-18T01:00:34.532Z,3.40
2019-01-18T01:03:04.634Z,2.40
2019-01-18T01:05:33.974Z,2.20
2019-01-18T01:08:03.309Z,2.10
2019-01-18T01:10:33.665Z,1.62
2019-01-18T01:13:03.036Z,1.52
2019-01-18T01:15:32.960Z,2.03
2019-01-18T01:18:02.332Z,1.50
2019-01-18T01:20:32.408Z,1.73
2019-01-18T01:23:02.475Z,2.20
2019-01-18T01:25:32.505Z,1.80
2019-01-18T01:28:01.860Z,1.80
2019-01-18T01:30:32.151Z,2.13
2019-01-18T01:33:02.521Z,2.07
2019-01-18T01:35:31.859Z,2.50
2019-01-18T01:38:01.270Z,2.20
2019-01-18T01:40:30.668Z,2.27
2019-01-18T01:43:00.044Z,2.08
2019-01-18T01:45:30.481Z,2.53
2019-01-18T01:47:59.859Z,2.50
2019-01-18T01:50:30.773Z,2.40
2019-01-18T01:53:00.170Z,2.20
2019-01-18T01:55:29.952Z,3.25
2019-01-18T01:57:59.339Z,2.30
2019-01-18T02:00:30.124Z,2.90
2019-01-18T02:02:59.637Z,2.83
2019-01-18T02:05:29.066Z,3.00
2019-01-18T02:07:58.425Z,2.73
2019-01-18T02:10:27.831Z,2.92
2019-01-18T02:12:57.790Z,2.30
2019-01-18T02:15:27.928Z,2.40
2019-01-18T02:17:57.739Z,2.70
2019-01-18T02:20:30.661Z,2.90
2019-01-18T02:23:03.748Z,3.02
2019-01-18T02:25:33.504Z,3.72
2019-01-18T02:28:03.269Z,4.00
2019-01-18T02:30:33.821Z,3.43
2019-01-18T02:33:03.684Z,3.37
2019-01-18T02:35:33.916Z,3.92
2019-01-18T02:38:04.266Z,3.63
2019-01-18T02:40:33.640Z,3.58
2019-01-18T02:43:03.046Z,3.83
2019-01-18T02:45:32.774Z,6.53
2019-01-18T02:48:05.824Z,4.27
2019-01-18T02:50:36.197Z,4.47
2019-01-18T02:53:05.942Z,4.73
2019-01-18T02:55:35.921Z,4.73
2019-01-18T02:58:05.397Z,3.90
2019-01-18T03:00:34.937Z,4.50
2019-01-18T03:03:04.469Z,5.23
2019-01-18T03:05:33.868Z,4.70
2019-01-18T03:08:03.239Z,4.33
2019-01-18T03:10:33.293Z,5.37
2019-01-18T03:13:04.072Z,5.13
2019-01-18T03:15:34.081Z,4.37
2019-01-18T03:18:03.668Z,5.20
2019-01-18T03:20:36.400Z,4.92
2019-01-18T03:23:06.511Z,5.23
2019-01-18T03:25:36.460Z,5.67
2019-01-18T03:28:09.117Z,7.00
2019-01-18T03:30:38.597Z,5.20
2019-01-18T03:33:08.672Z,7.63
2019-01-18T03:35:38.080Z,6.30
2019-01-18T03:38:08.550Z,5.20
2019-01-18T03:40:39.071Z,5.93
2019-01-18T03:43:08.753Z,6.67
2019-01-18T03:45:38.412Z,5.47
2019-01-18T03:48:07.875Z,4.90
2019-01-18T03:50:37.807Z,5.63
2019-01-18T03:53:07.188Z,5.67
2019-01-18T03:55:36.917Z,5.63
2019-01-18T03:58:06.798Z,6.10
2019-01-18T04:00:36.548Z,7.55
2019-01-18T04:03:06.737Z,5.58
2019-01-18T04:05:36.113Z,5.90
2019-01-18T04:08:07.180Z,5.33
2019-01-18T04:10:36.764Z,10.13
2019-01-18T04:13:06.156Z,6.50
2019-01-18T04:15:37.645Z,8.25
2019-01-18T04:18:07.795Z,5.40
2019-01-18T04:20:37.430Z,5.10
2019-01-18T04:23:06.805Z,5.17
2019-01-18T04:25:36.237Z,5.53
2019-01-18T04:28:05.718Z,5.03
2019-01-18T04:30:38.202Z,4.65
2019-01-18T04:33:07.597Z,5.27
2019-01-18T04:35:37.874Z,5.83
2019-01-18T04:38:07.745Z,4.87
2019-01-18T04:40:37.740Z,5.00
2019-01-18T04:43:07.787Z,6.47
2019-01-18T04:45:38.930Z,4.87
2019-01-18T04:48:11.087Z,5.13
2019-01-18T04:50:40.606Z,6.13
2019-01-18T04:53:10.377Z,5.70
2019-01-18T04:55:40.301Z,4.93
2019-01-18T04:58:11.240Z,7.70
2019-01-18T05:00:41.647Z,6.17
2019-01-18T05:03:11.433Z,9.13
2019-01-18T05:05:41.506Z,11.53
2019-01-18T05:08:11.120Z,5.67
2019-01-18T05:10:41.725Z,5.17
2019-01-18T05:13:11.114Z,8.40
2019-01-18T05:15:43.743Z,6.03
2019-01-18T05:18:14.201Z,4.30
2019-01-18T05:20:46.674Z,4.50
2019-01-18T05:23:18.113Z,7.00
2019-01-18T05:25:47.762Z,9.60
2019-01-18T05:28:18.038Z,7.40
2019-01-18T05:30:48.045Z,5.63
2019-01-18T05:33:18.455Z,10.28
2019-01-18T05:35:47.840Z,5.93
2019-01-18T05:38:19.071Z,5.40
2019-01-18T05:40:51.359Z,5.73
2019-01-18T05:43:21.199Z,9.13
2019-01-18T05:45:52.392Z,5.23
2019-01-18T05:48:22.118Z,6.95
2019-01-18T05:50:52.097Z,6.37
2019-01-18T05:53:22.424Z,8.55
2019-01-18T05:55:53.644Z,7.00
2019-01-18T05:58:23.020Z,8.13
2019-01-18T06:01:00.812Z,14.53
2019-01-18T06:03:32.931Z,6.55
2019-01-18T06:06:02.325Z,9.77
2019-01-18T06:08:31.903Z,5.10
2019-01-18T06:11:02.290Z,6.47
2019-01-18T06:13:31.915Z,7.87
2019-01-18T06:16:02.290Z,6.23
2019-01-18T06:18:33.147Z,12.77
2019-01-18T06:21:02.613Z,6.90
2019-01-18T06:23:32.560Z,6.80
2019-01-18T06:26:02.030Z,6.97
2019-01-18T06:28:31.625Z,4.70
2019-01-18T06:31:01.893Z,7.35
2019-01-18T06:33:32.107Z,5.37
2019-01-18T06:36:02.234Z,7.07
2019-01-18T06:38:31.575Z,5.37
2019-01-18T06:41:18.637Z,5.60
2019-01-18T06:43:49.315Z,7.33
2019-01-18T06:46:22.927Z,6.67
2019-01-18T06:48:55.271Z,7.27
2019-01-18T06:51:28.092Z,8.43
2019-01-18T06:53:57.432Z,8.60
2019-01-18T06:56:28.100Z,8.17
2019-01-18T06:58:58.258Z,7.60
2019-01-18T07:01:33.133Z,8.37
2019-01-18T07:04:03.343Z,4.90
2019-01-18T07:06:33.205Z,9.67
2019-01-18T07:09:05.472Z,8.70
2019-01-18T07:11:34.881Z,8.48
2019-01-18T07:14:04.256Z,5.77
2019-01-18T07:16:34.235Z,6.90
2019-01-18T07:19:04.512Z,9.50
2019-01-18T07:21:34.699Z,7.40
2019-01-18T07:24:06.678Z,8.43
2019-01-18T07:26:36.042Z,6.25
2019-01-18T07:29:05.422Z,8.80
2019-01-18T07:31:34.801Z,5.87
2019-01-18T07:34:05.347Z,6.43
2019-01-18T07:36:35.192Z,9.78
2019-01-18T07:39:07.432Z,7.10
2019-01-18T07:41:36.845Z,8.40
2019-01-18T07:44:06.569Z,5.03
2019-01-18T07:46:35.953Z,7.30
2019-01-18T07:49:05.804Z,8.90
2019-01-18T07:51:36.297Z,6.90
2019-01-18T07:54:06.889Z,7.67
2019-01-18T07:56:42.917Z,7.53
2019-01-18T07:59:13.391Z,6.03
2019-01-18T08:01:43.287Z,4.23
2019-01-18T08:04:12.637Z,7.40
2019-01-18T08:06:42.883Z,7.17
2019-01-18T08:09:12.706Z,6.23
2019-01-18T08:11:42.592Z,6.37
2019-01-18T08:14:12.544Z,6.50
2019-01-18T08:16:44.307Z,11.23
2019-01-18T08:19:13.756Z,7.77
2019-01-18T08:21:43.875Z,6.35
2019-01-18T08:24:15.998Z,9.63
2019-01-18T08:26:48.652Z,6.47
2019-01-18T08:29:18.066Z,12.78
2019-01-18T08:31:49.650Z,6.50
2019-01-18T08:34:20.159Z,6.77
2019-01-18T08:36:50.314Z,7.47
2019-01-18T08:39:19.676Z,5.90
2019-01-18T08:41:49.244Z,6.37
2019-01-18T08:44:20.395Z,6.33
2019-01-18T08:46:50.690Z,7.27
2019-01-18T08:49:21.187Z,7.92
2019-01-18T08:51:51.370Z,7.47
2019-01-18T08:54:20.765Z,7.77
2019-01-18T08:56:50.436Z,5.78
2019-01-18T08:59:20.340Z,5.80
2019-01-18T09:01:49.731Z,9.97
2019-01-18T09:04:19.233Z,9.50
2019-01-18T09:06:49.525Z,10.00
2019-01-18T09:09:19.645Z,5.37
2019-01-18T09:11:49.072Z,8.07
2019-01-18T09:14:19.507Z,6.10
2019-01-18T09:16:49.907Z,5.13
2019-01-18T09:19:20.628Z,6.63
2019-01-18T09:21:50.004Z,8.20
2019-01-18T09:24:21.644Z,7.30
2019-01-18T09:26:51.966Z,7.53
2019-01-18T09:29:21.878Z,5.25
2019-01-18T09:31:55.009Z,10.00
2019-01-18T09:34:24.414Z,4.30
2019-01-18T09:36:56.592Z,8.80
2019-01-18T09:39:25.979Z,22.37
2019-01-18T09:41:56.403Z,9.20
2019-01-18T09:44:25.704Z,12.90
2019-01-18T09:46:55.641Z,7.87
2019-01-18T09:49:27.946Z,6.83
2019-01-18T09:51:57.308Z,9.00
2019-01-18T09:54:26.918Z,13.17
2019-01-18T09:56:56.399Z,16.00
2019-01-18T09:59:26.491Z,40.33
2019-01-18T10:01:55.869Z,16.00
2019-01-18T10:04:26.042Z,8.08
2019-01-18T10:06:55.415Z,8.60
2019-01-18T10:09:24.812Z,7.10
2019-01-18T10:11:56.139Z,7.93
2019-01-18T10:14:25.985Z,8.70
2019-01-18T10:16:55.939Z,8.13
2019-01-18T10:19:25.319Z,8.80
2019-01-18T10:21:54.900Z,6.50
2019-01-18T10:24:24.210Z,11.17
2019-01-18T10:26:54.039Z,10.73
2019-01-18T10:29:28.106Z,4.90
2019-01-18T10:31:56.238Z,5.80
2019-01-18T10:34:27.696Z,5.80
2019-01-18T10:36:57.080Z,7.37
2019-01-18T10:39:26.624Z,6.43
2019-01-18T10:41:57.614Z,6.47
2019-01-18T10:44:27.763Z,8.50
2019-01-18T10:46:57.480Z,8.85
2019-01-18T10:49:27.426Z,7.53
2019-01-18T10:51:56.791Z,8.93
2019-01-18T10:54:29.804Z,6.67
2019-01-18T10:56:59.547Z,8.07
2019-01-18T10:59:28.973Z,9.77
2019-01-18T11:02:03.294Z,7.57
2019-01-18T11:04:30.183Z,8.80
2019-01-18T11:06:59.891Z,9.90
2019-01-18T11:09:36.181Z,9.20
2019-01-18T11:12:06.198Z,8.27
2019-01-18T11:14:39.120Z,6.07
2019-01-18T11:17:09.826Z,13.53
2019-01-18T11:19:42.739Z,8.78
2019-01-18T11:22:12.179Z,8.00
2019-01-18T11:24:41.558Z,11.03
2019-01-18T11:27:12.422Z,9.87
2019-01-18T11:29:44.715Z,9.03
2019-01-18T11:32:15.066Z,13.45
2019-01-18T11:34:44.492Z,8.40
2019-01-18T11:37:14.251Z,7.90
2019-01-18T11:39:43.656Z,11.40
2019-01-18T11:42:15.879Z,8.05
2019-01-18T11:44:45.648Z,10.80
2019-01-18T11:47:15.308Z,8.08
2019-01-18T11:49:44.737Z,6.93
2019-01-18T11:52:14.911Z,8.80
2019-01-18T11:54:44.853Z,11.07
2019-01-18T11:57:14.404Z,8.63
2019-01-18T11:59:49.094Z,9.90
2019-01-18T12:02:22.195Z,13.22
2019-01-18T12:04:52.808Z,9.10
2019-01-18T12:07:22.200Z,9.40
2019-01-18T12:09:52.555Z,8.20
2019-01-18T12:12:21.969Z,8.18
2019-01-18T12:14:52.407Z,15.13
2019-01-18T12:17:22.178Z,15.72
2019-01-18T12:19:51.941Z,27.33
2019-01-18T12:22:21.865Z,10.40
2019-01-18T12:24:51.276Z,7.80
2019-01-18T12:27:24.567Z,8.50
2019-01-18T12:29:53.998Z,11.17
2019-01-18T12:32:28.718Z,17.50
2019-01-18T12:34:54.459Z,10.67
2019-01-18T12:37:47.092Z,11.20
2019-01-18T12:40:16.609Z,23.55
2019-01-18T12:42:47.360Z,13.93
2019-01-18T12:45:19.567Z,31.48
2019-01-18T12:47:50.376Z,20.20
2019-01-18T12:50:31.801Z,32.73
2019-01-18T12:53:01.534Z,7.67
2019-01-18T12:55:30.988Z,6.05
2019-01-18T12:58:00.970Z,6.50
2019-01-18T13:00:32.034Z,6.67
2019-01-18T13:03:03.632Z,11.93
2019-01-18T13:05:39.560Z,10.35
2019-01-18T13:08:09.670Z,55.50
2019-01-18T13:10:39.040Z,11.90
2019-01-18T13:13:08.802Z,5.80
2019-01-18T13:16:14.301Z,6.97
2019-01-18T13:18:50.463Z,12.67
2019-01-18T13:21:19.835Z,6.07
2019-01-18T13:23:50.631Z,5.87
2019-01-18T13:26:21.019Z,6.90
2019-01-18T13:28:50.416Z,6.07
2019-01-18T13:31:19.790Z,5.33
2019-01-18T13:33:49.881Z,6.67
2019-01-18T13:36:19.472Z,6.40
2019-01-18T13:38:48.795Z,10.07
2019-01-18T13:41:18.801Z,10.85
2019-01-18T13:43:48.182Z,7.43
2019-01-18T13:46:20.442Z,14.83
2019-01-18T13:48:51.096Z,5.23
2019-01-18T13:51:21.019Z,5.53
2019-01-18T13:53:52.040Z,5.33
2019-01-18T13:56:24.685Z,15.95
2019-01-18T13:58:54.939Z,4.67
2019-01-18T14:01:26.753Z,3.92
2019-01-18T14:03:56.824Z,4.20
2019-01-18T14:06:28.333Z,6.80
2019-01-18T14:08:57.626Z,4.60
2019-01-18T14:11:31.673Z,8.15
2019-01-18T14:14:04.806Z,7.20
2019-01-18T14:16:36.209Z,8.68
2019-01-18T14:19:05.661Z,15.90
2019-01-18T14:21:35.056Z,10.03
2019-01-18T14:24:04.870Z,9.53
2019-01-18T14:26:34.865Z,10.98
2019-01-18T14:29:04.244Z,9.13
2019-01-18T14:31:33.729Z,10.83
2019-01-18T14:34:03.154Z,7.67
2019-01-18T14:36:33.655Z,6.67
2019-01-18T14:39:05.407Z,23.40
2019-01-18T14:41:37.256Z,44.50
2019-01-18T14:44:10.379Z,9.57
2019-01-18T14:46:39.749Z,10.30
2019-01-18T14:49:10.117Z,11.43
2019-01-18T14:51:39.492Z,16.20
2019-01-18T14:54:08.889Z,19.03
2019-01-18T14:56:39.024Z,19.73
2019-01-18T14:59:08.421Z,16.70
2019-01-18T15:01:38.634Z,9.70
2019-01-18T15:04:08.325Z,10.10
2019-01-18T15:06:37.728Z,11.10
2019-01-18T15:09:10.385Z,8.15
2019-01-18T15:11:40.258Z,7.27
2019-01-18T15:14:09.644Z,10.63
2019-01-18T15:16:41.593Z,8.15
2019-01-18T15:19:12.144Z,8.30
2019-01-18T15:21:41.469Z,9.00
2019-01-18T15:24:11.485Z,14.00
2019-01-18T15:26:40.956Z,9.00
2019-01-18T15:29:10.985Z,9.40
2019-01-18T15:31:40.365Z,15.80
2019-01-18T15:34:11.058Z,18.33
2019-01-18T15:36:41.762Z,9.77
2019-01-18T15:39:13.997Z,13.30
2019-01-18T15:41:46.108Z,12.20
2019-01-18T15:44:17.991Z,12.23
2019-01-18T15:46:48.301Z,14.73
2019-01-18T15:49:19.827Z,17.65
2019-01-18T15:51:49.134Z,15.13
2019-01-18T15:54:19.021Z,14.70
2019-01-18T15:56:50.053Z,13.60
2019-01-18T15:59:20.800Z,16.80
2019-01-18T16:01:50.133Z,19.53
2019-01-18T16:04:22.393Z,16.52
2019-01-18T16:06:52.774Z,17.80
2019-01-18T16:09:23.158Z,24.56
2019-01-18T16:11:52.883Z,17.53
2019-01-18T16:14:22.955Z,16.73
2019-01-18T16:17:00.866Z,13.93
2019-01-18T16:19:33.643Z,17.50
2019-01-18T16:22:03.433Z,15.70
2019-01-18T16:24:34.754Z,24.73
2019-01-18T16:27:04.711Z,21.90
2019-01-18T16:29:35.008Z,19.57
2019-01-18T16:32:05.529Z,20.60
2019-01-18T16:34:35.786Z,21.12
2019-01-18T16:37:06.987Z,17.23
2019-01-18T16:39:37.684Z,13.73
2019-01-18T16:42:13.374Z,13.30
2019-01-18T16:44:43.956Z,14.60
2019-01-18T16:47:13.956Z,13.90
2019-01-18T16:49:44.645Z,12.93
2019-01-18T16:52:14.951Z,17.27
2019-01-18T16:54:45.243Z,20.50
2019-01-18T16:57:17.408Z,20.12
2019-01-18T16:59:48.387Z,26.60
2019-01-18T17:02:19.084Z,24.55
2019-01-18T17:04:49.877Z,23.47
2019-01-18T17:07:19.958Z,25.23
2019-01-18T17:09:50.161Z,18.03
2019-01-18T17:12:23.790Z,17.10
2019-01-18T17:14:53.157Z,20.32
2019-01-18T17:17:24.806Z,20.47
2019-01-18T17:19:56.770Z,18.27
2019-01-18T17:22:30.338Z,24.50
2019-01-18T17:25:05.133Z,25.10
2019-01-18T17:27:35.190Z,27.48
2019-01-18T17:30:07.742Z,22.93
2019-01-18T17:32:37.313Z,22.22
2019-01-18T17:35:12.322Z,20.08
2019-01-18T17:37:45.925Z,25.90
2019-01-18T17:40:52.445Z,25.23
2019-01-18T17:44:21.067Z,33.50
2019-01-18T17:47:31.840Z,22.60
2019-01-18T17:50:56.136Z,25.50
2019-01-18T17:53:46.000Z,29.00
2019-01-18T17:57:11.475Z,29.50
2019-01-18T18:00:23.379Z,31.60
2019-01-18T18:03:54.789Z,28.90
2019-01-18T18:07:11.331Z,28.80
2019-01-18T18:09:47.037Z,29.17
2019-01-18T18:12:42.720Z,27.45
2019-01-18T18:15:52.574Z,21.40
2019-01-18T18:19:18.118Z,20.95
2019-01-18T18:22:32.860Z,23.00
2019-01-18T18:25:16.475Z,27.60
2019-01-18T18:28:34.765Z,29.30
2019-01-18T18:31:41.326Z,21.53
2019-01-18T18:34:47.576Z,19.17
2019-01-18T18:38:01.081Z,25.57
2019-01-18T18:41:08.082Z,23.05
2019-01-18T18:44:37.083Z,24.87
2019-01-18T18:47:23.889Z,22.83
2019-01-18T18:50:46.544Z,32.90
2019-01-18T18:53:40.709Z,24.65
2019-01-18T18:56:33.842Z,25.15
2019-01-18T18:59:34.777Z,35.33
2019-01-18T19:02:45.547Z,26.00
2019-01-18T19:05:57.801Z,20.88
2019-01-18T19:09:04.509Z,25.10
2019-01-18T19:11:57.317Z,24.30
2019-01-18T19:15:28.835Z,30.27
2019-01-18T19:18:12.074Z,23.70
2019-01-18T19:21:26.527Z,23.73
2019-01-18T19:24:30.021Z,23.80
2019-01-18T19:27:32.052Z,21.40
2019-01-18T19:30:50.349Z,21.73
2019-01-18T19:33:39.361Z,26.70
2019-01-18T19:36:37.491Z,22.33
2019-01-18T19:39:41.322Z,24.50
2019-01-18T19:42:37.777Z,22.83
2019-01-18T19:46:03.953Z,26.45
2019-01-18T19:49:18.504Z,22.55
2019-01-18T19:52:30.480Z,26.20
2019-01-18T19:55:34.240Z,20.33
2019-01-18T19:59:01.524Z,22.57
2019-01-18T20:02:07.642Z,23.47
2019-01-18T20:05:05.760Z,31.97
2019-01-18T20:08:13.536Z,25.50
2019-01-18T20:11:16.469Z,21.87
2019-01-18T20:14:38.364Z,20.10
2019-01-18T20:17:48.922Z,22.53
2019-01-18T20:21:14.673Z,21.60
2019-01-18T20:24:25.096Z,21.37
2019-01-18T20:27:39.033Z,25.53
2019-01-18T20:30:45.825Z,20.77
2019-01-18T20:33:52.451Z,21.73
2019-01-18T20:37:00.514Z,22.42
2019-01-18T20:40:08.328Z,27.37
2019-01-18T20:43:20.164Z,29.83
2019-01-18T20:46:31.600Z,28.90
2019-01-18T20:49:45.297Z,26.37
2019-01-18T20:52:54.551Z,28.65
2019-01-18T20:55:59.601Z,27.07
2019-01-18T20:59:00.231Z,24.20
2019-01-18T21:02:06.151Z,29.00
2019-01-18T21:05:06.718Z,28.47
2019-01-18T21:08:03.700Z,31.67
2019-01-18T21:11:10.167Z,26.45
2019-01-18T21:14:05.370Z,33.77
2019-01-18T21:17:15.424Z,31.82
2019-01-18T21:20:38.316Z,31.20
2019-01-18T21:24:00.887Z,33.33
2019-01-18T21:26:55.585Z,30.93
2019-01-18T21:29:55.222Z,34.90
2019-01-18T21:32:49.617Z,35.03
2019-01-18T21:35:57.136Z,28.12
2019-01-18T21:38:43.147Z,34.83
2019-01-18T21:41:57.201Z,36.33
2019-01-18T21:44:54.361Z,33.30
2019-01-18T21:47:54.099Z,31.05
2019-01-18T21:51:20.153Z,35.90
2019-01-18T21:54:09.486Z,33.47
2019-01-18T21:57:35.413Z,36.60
2019-01-18T22:00:45.211Z,37.40
2019-01-18T22:04:03.012Z,34.92
2019-01-18T22:07:10.053Z,24.50
2019-01-18T22:09:50.046Z,30.60
2019-01-18T22:12:39.535Z,30.30
2019-01-18T22:15:25.496Z,29.98
2019-01-18T22:18:42.577Z,25.17
2019-01-18T22:21:36.924Z,25.32
2019-01-18T22:24:52.113Z,24.10
2019-01-18T22:27:45.776Z,24.02
2019-01-18T22:30:47.801Z,23.60
2019-01-18T22:33:49.150Z,25.64
2019-01-18T22:37:04.850Z,21.00
2019-01-18T22:39:53.805Z,25.10
2019-01-18T22:43:11.231Z,22.67
2019-01-18T22:46:09.379Z,21.67
2019-01-18T22:49:31.981Z,28.33
2019-01-18T22:52:18.314Z,21.60
2019-01-18T22:55:23.334Z,25.07
2019-01-18T22:58:44.583Z,28.30
2019-01-18T23:01:38.281Z,28.50
2019-01-18T23:04:41.272Z,22.73
2019-01-18T23:07:40.029Z,25.50
2019-01-18T23:10:41.481Z,23.20
2019-01-18T23:13:45.690Z,23.33
2019-01-18T23:16:38.188Z,25.08
2019-01-18T23:19:34.150Z,23.13
2019-01-18T23:22:48.504Z,23.90
2019-01-18T23:25:31.940Z,20.84
2019-01-18T23:28:49.609Z,19.17
2019-01-18T23:31:27.124Z,20.83
2019-01-18T23:34:23.333Z,20.20
2019-01-18T23:37:22.885Z,21.73
2019-01-18T23:40:26.292Z,18.93
2019-01-18T23:43:20.009Z,20.83
2019-01-18T23:46:34.394Z,21.27
2019-01-18T23:49:17.573Z,18.30
2019-01-18T23:52:27.880Z,24.13
2019-01-18T23:55:34.716Z,20.83
2019-01-18T23:58:33.735Z,24.40
